Time;durP1;ratioP1;P1;durP2;ratioP2;P2;SDS_P1;SDS_P2;PMS_P1;PMS_P2;Temp;Humidity;BMP_temperature;BMP_pressure;BME280_temperature;BME280_humidity;BME280_pressure;Samples;Min_cycle;Max_cycle;Signal;HPM_P1;HPM_P2
2021/06/01 00:01:54;;;;;;;;;;;;;;;15.83;58.31;99391.16;5056287;28;19920;-63
2021/06/01 00:04:20;;;;;;;;;;;;;;;16.24;57.25;99386.56;5052402;28;19962;-63
2021/06/01 00:06:45;;;;;;;;;;;;;;;15.78;59.31;99388.78;5034470;28;19930;-63
2021/06/01 00:09:12;;;;;;;;;;;;;;;15.62;59.37;99382.56;5057423;28;19962;-63
2021/06/01 00:11:38;;;;;;;;;;;;;;;15.79;60.29;99374.88;5038889;28;19924;-63
2021/06/01 00:14:04;;;;;;;;;;;;;;;15.73;59.49;99380.34;5055395;28;19924;-63
2021/06/01 00:16:29;;;;;;;;;;;;;;;15.62;61.40;99387.75;5036902;28;20362;-63
2021/06/01 00:18:54;;;;;;;;;;;;;;;15.80;59.63;99384.31;5055684;28;19942;-63
2021/06/01 00:21:20;;;;;;;;;;;;;;;15.48;60.84;99389.22;5054226;28;19917;-63
2021/06/01 00:23:46;;;;;;;;;;;;;;;15.35;61.74;99390.72;5053288;28;19958;-63
2021/06/01 00:26:12;;;;;;;;;;;;;;;15.30;61.59;99392.66;5053683;28;20367;-63
2021/06/01 00:28:38;;;;;;;;;;;;;;;15.37;61.80;99394.09;5054653;28;19928;-63
2021/06/01 00:31:03;;;;;;;;;;;;;;;15.23;62.09;99391.25;5056396;28;20281;-63
2021/06/01 00:33:30;;;;;;;;;;;;;;;15.33;62.34;99387.34;5053422;28;19924;-64
2021/06/01 00:35:55;;;;;;;;;;;;;;;15.31;62.84;99385.75;5052881;28;19924;-63
2021/06/01 00:38:21;;;;;;;;;;;;;;;15.48;62.73;99384.03;5035876;28;19917;-63
2021/06/01 00:40:46;;;;;;;;;;;;;;;15.10;63.87;99382.34;5055321;28;20605;-63
2021/06/01 00:43:11;;;;;;;;;;;;;;;15.38;62.91;99387.97;5054565;28;19994;-63
2021/06/01 00:45:37;;;;;;;;;;;;;;;15.23;63.17;99388.66;5034023;28;19917;-63
2021/06/01 00:48:03;;;;;;;;;;;;;;;15.44;63.37;99384.25;5052513;28;19924;-63
2021/06/01 00:50:28;;;;;;;;;;;;;;;15.57;62.82;99390.56;5050370;28;19923;-63
2021/06/01 00:52:54;;;;;;;;;;;;;;;15.17;65.30;99388.97;5035341;28;19931;-63
2021/06/01 00:55:19;;;;;;;;;;;;;;;14.95;65.30;99387.28;5055098;28;19919;-63
2021/06/01 00:57:45;;;;;;;;;;;;;;;15.25;64.18;99389.44;5053115;28;19952;-63
2021/06/01 01:00:23;;;;;;;;;;;;;;;15.37;64.02;99390.63;5021155;28;20428;-63
2021/06/01 01:02:48;;;;;;;;;;;;;;;15.39;64.90;99387.06;5048053;28;19921;-63
2021/06/01 01:05:14;;;;;;;;;;;;;;;15.25;64.93;99389.44;5046754;28;19924;-63
2021/06/01 01:07:47;;;;;;;;;;;;;;;15.28;64.63;99381.53;5054101;28;20393;-63
2021/06/01 01:10:13;;;;;;;;;;;;;;;14.98;65.60;99387.16;5022712;28;20018;-63
2021/06/01 01:12:41;;;;;;;;;;;;;;;15.48;63.70;99376.25;5013130;28;20342;-63
2021/06/01 01:15:07;;;;;;;;;;;;;;;15.19;63.85;99385.38;5013630;28;19973;-63
2021/06/01 01:17:46;;;;;;;;;;;;;;;15.20;64.55;99386.22;4995590;28;19922;-63
2021/06/01 01:20:30;;;;;;;;;;;;;;;15.06;65.66;99385.06;5011926;28;20464;-63
2021/06/01 01:22:56;;;;;;;;;;;;;;;15.07;65.39;99385.91;5014466;28;20338;-63
2021/06/01 01:25:23;;;;;;;;;;;;;;;15.28;64.11;99389.31;4995065;28;19972;-63
2021/06/01 01:27:54;;;;;;;;;;;;;;;15.16;64.66;99379.47;4993507;28;20535;-63
2021/06/01 01:30:19;;;;;;;;;;;;;;;15.16;65.62;99384.66;5014294;28;20694;-63
2021/06/01 01:32:48;;;;;;;;;;;;;;;15.30;65.30;99382.28;5013171;28;19921;-63
2021/06/01 01:35:14;;;;;;;;;;;;;;;15.15;66.91;99383.00;5013158;28;19925;-62
2021/06/01 01:37:39;;;;;;;;;;;;;;;14.56;69.47;99388.09;4999788;28;19920;-63
2021/06/01 01:40:05;;;;;;;;;;;;;;;14.63;69.83;99386.94;4994350;28;19921;-63
2021/06/01 01:42:38;;;;;;;;;;;;;;;14.38;69.93;99387.09;5013565;28;20325;-63
2021/06/01 01:45:08;;;;;;;;;;;;;;;14.45;71.66;99377.31;4996479;28;19919;-62
2021/06/01 01:50:00;;;;;;;;;;;;;;;14.47;69.24;99385.03;4996515;28;19925;-63
2021/06/01 01:52:25;;;;;;;;;;;;;;;14.72;69.61;99384.88;5010836;28;19921;-63
2021/06/01 01:54:50;;;;;;;;;;;;;;;14.64;69.35;99378.25;4991573;28;19917;-63
2021/06/01 01:57:16;;;;;;;;;;;;;;;14.69;70.01;99379.78;4995251;28;19917;-63
2021/06/01 01:59:41;;;;;;;;;;;;;;;14.17;72.04;99377.63;4993379;28;20008;-62
2021/06/01 02:02:10;;;;;;;;;;;;;;;14.49;71.02;99365.09;4982487;28;19917;-63
2021/06/01 02:04:35;;;;;;;;;;;;;;;14.39;71.31;99364.59;5010560;28;19925;-62
2021/06/01 02:07:01;;;;;;;;;;;;;;;14.61;71.08;99370.59;4997863;28;19917;-63
2021/06/01 02:09:26;;;;;;;;;;;;;;;14.79;69.56;99370.72;5016987;28;20305;-63
2021/06/01 02:11:52;;;;;;;;;;;;;;;14.65;68.92;99371.31;5037111;28;19931;-62
2021/06/01 02:14:17;;;;;;;;;;;;;;;14.49;69.61;99368.50;5057505;28;19969;-62
2021/06/01 02:16:43;;;;;;;;;;;;;;;14.57;69.97;99361.28;5060462;28;19999;-63
2021/06/01 02:19:09;;;;;;;;;;;;;;;14.15;71.64;99364.72;5057956;28;19920;-62
2021/06/01 02:24:27;;;;;;;;;;;;;;;14.00;74.38;99360.16;5056949;28;20453;-63
2021/06/01 02:27:16;;;;;;;;;;;;;;;13.91;74.49;99370.88;5057100;28;20402;-62
2021/06/01 02:30:01;;;;;;;;;;;;;;;14.09;73.56;99362.38;5041372;28;19943;-63
2021/06/01 02:32:30;;;;;;;;;;;;;;;14.21;73.22;99368.81;5056583;28;20555;-62
2021/06/01 02:34:56;;;;;;;;;;;;;;;14.15;73.24;99359.53;5021271;28;19921;-62
2021/06/01 02:37:22;;;;;;;;;;;;;;;14.08;72.30;99368.47;5037294;28;20313;-63
2021/06/01 02:39:47;;;;;;;;;;;;;;;14.41;70.78;99365.38;5056957;28;19990;-63
2021/06/01 02:42:12;;;;;;;;;;;;;;;14.17;72.16;99367.25;5037604;28;20012;-62
2021/06/01 02:44:37;;;;;;;;;;;;;;;14.44;70.74;99358.34;5055478;28;19912;-62
2021/06/01 02:47:04;;;;;;;;;;;;;;;14.30;69.85;99362.41;5037729;28;20661;-63
2021/06/01 02:49:29;;;;;;;;;;;;;;;14.53;70.40;99362.28;5038323;28;20409;-62
2021/06/01 02:51:55;;;;;;;;;;;;;;;14.67;70.35;99360.91;5055195;28;19925;-63
2021/06/01 02:54:22;;;;;;;;;;;;;;;14.52;68.88;99358.00;5054228;28;19931;-63
2021/06/01 02:56:48;;;;;;;;;;;;;;;14.69;68.60;99359.91;5017162;28;19916;-62
2021/06/01 02:59:13;;;;;;;;;;;;;;;14.75;67.81;99370.00;5036628;28;19916;-63
2021/06/01 03:01:39;;;;;;;;;;;;;;;14.39;70.00;99365.47;5037203;28;19923;-62
2021/06/01 03:04:06;;;;;;;;;;;;;;;14.38;68.14;99360.34;5035922;28;19921;-62
2021/06/01 03:06:34;;;;;;;;;;;;;;;14.21;69.41;99361.06;5032172;28;19920;-62
2021/06/01 03:08:59;;;;;;;;;;;;;;;14.16;71.20;99356.06;5055109;28;19920;-62
2021/06/01 03:11:24;;;;;;;;;;;;;;;13.79;72.94;99365.28;5034995;28;19925;-62
2021/06/01 03:13:50;;;;;;;;;;;;;;;13.14;77.54;99359.09;5036125;28;19928;-62
2021/06/01 03:16:16;;;;;;;;;;;;;;;12.93;80.55;99365.91;5017827;28;19924;-64
2021/06/01 03:18:42;;;;;;;;;;;;;;;13.30;78.76;99364.59;5034797;28;20876;-63
2021/06/01 03:21:07;;;;;;;;;;;;;;;12.62;82.74;99362.72;5034812;28;19924;-63
2021/06/01 03:23:32;;;;;;;;;;;;;;;12.64;85.36;99360.91;5036401;28;19913;-63
2021/06/01 03:25:58;;;;;;;;;;;;;;;12.31;87.70;99361.16;5036759;28;19921;-63
2021/06/01 03:28:23;;;;;;;;;;;;;;;13.02;84.13;99353.53;5036245;28;19920;-63
2021/06/01 03:30:49;;;;;;;;;;;;;;;12.90;84.54;99355.66;5034617;28;19921;-63
2021/06/01 03:33:15;;;;;;;;;;;;;;;12.47;86.70;99351.97;5038661;28;19970;-64
2021/06/01 03:35:40;;;;;;;;;;;;;;;12.37;87.63;99350.63;5030663;28;20305;-63
2021/06/01 03:38:06;;;;;;;;;;;;;;;12.65;84.34;99354.84;5034309;28;19921;-63
2021/06/01 03:40:31;;;;;;;;;;;;;;;12.43;86.62;99350.44;5034064;28;20034;-63
2021/06/01 03:42:57;;;;;;;;;;;;;;;12.33;86.59;99349.03;5033366;28;19917;-63
2021/06/01 03:45:23;;;;;;;;;;;;;;;12.29;87.05;99352.59;5032989;28;20016;-63
2021/06/01 03:47:48;;;;;;;;;;;;;;;12.47;86.84;99346.81;5015100;28;19960;-63
2021/06/01 03:50:14;;;;;;;;;;;;;;;12.65;85.28;99349.66;5036553;28;19935;-63
2021/06/01 03:52:39;;;;;;;;;;;;;;;12.89;81.58;99351.41;5033966;28;19917;-63
2021/06/01 03:55:05;;;;;;;;;;;;;;;12.89;81.55;99348.81;5036167;28;19913;-63
2021/06/01 03:57:31;;;;;;;;;;;;;;;12.93;82.28;99345.22;5035050;28;19913;-64
2021/06/01 03:59:56;;;;;;;;;;;;;;;12.77;82.70;99349.22;5034262;28;19917;-63
2021/06/01 04:02:22;;;;;;;;;;;;;;;13.13;80.78;99341.06;5032315;28;19952;-63
2021/06/01 04:04:49;;;;;;;;;;;;;;;13.25;80.06;99350.97;5033964;28;19925;-63
2021/06/01 04:07:14;;;;;;;;;;;;;;;13.33;79.65;99351.53;5030187;28;19921;-63
2021/06/01 04:09:40;;;;;;;;;;;;;;;13.30;78.73;99353.41;5039032;28;20401;-63
2021/06/01 04:12:06;;;;;;;;;;;;;;;13.52;78.46;99348.25;5053896;28;19921;-63
2021/06/01 04:14:31;;;;;;;;;;;;;;;13.85;76.89;99345.25;5053272;28;19920;-63
2021/06/01 04:16:57;;;;;;;;;;;;;;;13.75;75.37;99345.63;5054571;28;20012;-63
2021/06/01 04:19:22;;;;;;;;;;;;;;;13.82;74.43;99346.19;5036301;28;20007;-63
2021/06/01 04:21:47;;;;;;;;;;;;;;;14.17;73.58;99349.13;5053838;28;19917;-63
2021/06/01 04:24:14;;;;;;;;;;;;;;;14.00;74.17;99349.78;5034088;28;19964;-63
2021/06/01 04:26:39;;;;;;;;;;;;;;;13.85;73.70;99346.09;5033067;28;19921;-64
2021/06/01 04:29:04;;;;;;;;;;;;;;;13.71;74.95;99353.56;5017400;28;19968;-63
2021/06/01 04:31:30;;;;;;;;;;;;;;;14.09;74.30;99339.06;5054111;28;20297;-63
2021/06/01 04:33:55;;;;;;;;;;;;;;;14.20;73.67;99341.22;5054340;28;20267;-63
2021/06/01 04:36:21;;;;;;;;;;;;;;;14.17;75.75;99337.00;5056522;28;20011;-63
2021/06/01 04:38:47;;;;;;;;;;;;;;;14.34;75.51;99338.06;5038448;28;19924;-62
2021/06/01 04:41:12;;;;;;;;;;;;;;;14.30;75.71;99339.06;5052039;28;19916;-63
2021/06/01 04:43:38;;;;;;;;;;;;;;;14.42;75.49;99331.66;5036855;28;19917;-63
2021/06/01 04:46:03;;;;;;;;;;;;;;;14.78;73.37;99332.72;5034445;28;19923;-63
2021/06/01 04:48:28;;;;;;;;;;;;;;;14.45;74.35;99341.03;5053316;28;19921;-63
2021/06/01 04:50:54;;;;;;;;;;;;;;;14.68;74.57;99334.06;5021659;28;19966;-63
2021/06/01 04:53:19;;;;;;;;;;;;;;;15.00;72.92;99333.47;5055157;28;20352;-62
2021/06/01 04:55:45;;;;;;;;;;;;;;;15.05;71.31;99339.31;5053498;28;19924;-62
2021/06/01 04:58:11;;;;;;;;;;;;;;;15.02;72.24;99334.25;5054898;28;19931;-64
2021/06/01 05:00:36;;;;;;;;;;;;;;;15.01;73.00;99329.16;5051792;28;19921;-63
2021/06/01 05:03:01;;;;;;;;;;;;;;;15.29;70.06;99333.91;5049887;28;19924;-64
2021/06/01 05:05:27;;;;;;;;;;;;;;;15.28;70.87;99332.25;5033215;28;19974;-64
2021/06/01 05:07:54;;;;;;;;;;;;;;;15.35;70.08;99328.44;5053312;28;19931;-64
2021/06/01 05:10:20;;;;;;;;;;;;;;;15.39;69.55;99327.38;5055448;28;20577;-64
2021/06/01 05:12:45;;;;;;;;;;;;;;;15.67;69.14;99329.53;5034113;28;19916;-63
2021/06/01 05:15:11;;;;;;;;;;;;;;;15.99;66.61;99334.13;5052404;28;19916;-63
2021/06/01 05:17:36;;;;;;;;;;;;;;;16.26;65.77;99330.16;5052970;28;19920;-64
2021/06/01 05:20:02;;;;;;;;;;;;;;;16.18;66.80;99326.25;5051449;28;19923;-64
2021/06/01 05:22:27;;;;;;;;;;;;;;;15.78;66.51;99335.97;5051998;28;20023;-64
2021/06/01 05:24:53;;;;;;;;;;;;;;;16.50;63.49;99333.25;5057080;28;19917;-64
2021/06/01 05:27:18;;;;;;;;;;;;;;;16.09;65.04;99333.56;5051299;28;19952;-64
2021/06/01 05:29:49;;;;;;;;;;;;;;;16.28;64.92;99336.13;5057384;28;19919;-63
2021/06/01 05:34:59;;;;;;;;;;;;;;;16.55;63.97;99333.00;5049680;28;20449;-64
2021/06/01 05:37:28;;;;;;;;;;;;;;;16.87;63.68;99328.78;5050162;28;19916;-64
2021/06/01 05:39:53;;;;;;;;;;;;;;;17.04;62.21;99335.69;5051326;28;19916;-63
2021/06/01 05:42:18;;;;;;;;;;;;;;;17.03;62.91;99338.38;5048202;28;19927;-64
2021/06/01 05:44:46;;;;;;;;;;;;;;;17.05;62.77;99337.38;5040345;28;19946;-64
2021/06/01 05:47:12;;;;;;;;;;;;;;;17.40;62.23;99342.44;5052686;28;19959;-64
2021/06/01 05:49:37;;;;;;;;;;;;;;;17.44;61.77;99349.16;5051371;28;20452;-64
2021/06/01 05:52:02;;;;;;;;;;;;;;;17.46;61.63;99336.88;5054011;28;19924;-64
2021/06/01 05:54:28;;;;;;;;;;;;;;;17.52;62.02;99336.56;5034790;28;19963;-64
2021/06/01 05:56:53;;;;;;;;;;;;;;;17.71;60.16;99335.53;5020722;28;20313;-64
2021/06/01 05:59:18;;;;;;;;;;;;;;;17.84;59.56;99335.72;5055566;28;19951;-64
2021/06/01 06:01:44;;;;;;;;;;;;;;;17.66;60.42;99338.41;5059472;28;19916;-63
2021/06/01 06:04:09;;;;;;;;;;;;;;;17.79;60.61;99335.97;5054687;28;19923;-63
2021/06/01 06:06:34;;;;;;;;;;;;;;;18.16;59.57;99326.06;5060100;28;19924;-63
2021/06/01 06:09:00;;;;;;;;;;;;;;;18.21;58.53;99323.19;5055882;28;20003;-63
2021/06/01 06:11:25;;;;;;;;;;;;;;;18.28;58.97;99335.75;5056352;28;19921;-63
2021/06/01 06:13:50;;;;;;;;;;;;;;;18.67;57.22;99331.72;5055561;28;19913;-63
2021/06/01 06:16:19;;;;;;;;;;;;;;;18.44;58.97;99337.47;5040883;28;19923;-63
2021/06/01 06:18:57;;;;;;;;;;;;;;;18.85;56.86;99334.19;5054730;28;19916;-62
2021/06/01 06:21:23;;;;;;;;;;;;;;;19.18;55.04;99337.34;5060574;28;19916;-63
2021/06/01 06:23:48;;;;;;;;;;;;;;;19.18;57.27;99336.50;5058045;28;20396;-63
2021/06/01 06:26:14;;;;;;;;;;;;;;;19.18;55.00;99341.72;5055684;28;19943;-62
2021/06/01 06:28:39;;;;;;;;;;;;;;;19.39;54.17;99335.16;5057330;28;19946;-62
2021/06/01 06:31:04;;;;;;;;;;;;;;;19.92;50.97;99342.31;5054674;28;20275;-63
2021/06/01 06:33:30;;;;;;;;;;;;;;;19.89;50.90;99342.50;5054441;28;19956;-63
2021/06/01 06:35:55;;;;;;;;;;;;;;;19.87;50.07;99344.38;5052263;28;19966;-63
2021/06/01 06:38:21;;;;;;;;;;;;;;;20.31;49.79;99338.00;5052231;28;20321;-63
2021/06/01 06:43:30;;;;;;;;;;;;;;;20.42;50.92;99336.34;5049421;28;19928;-63
2021/06/01 06:45:55;;;;;;;;;;;;;;;21.02;50.07;99334.03;5052427;28;19920;-63
2021/06/01 06:48:21;;;;;;;;;;;;;;;21.16;49.50;99338.31;5054512;28;20142;-63
2021/06/01 06:50:46;;;;;;;;;;;;;;;21.50;48.06;99336.78;5053818;28;19921;-63
2021/06/01 06:53:12;;;;;;;;;;;;;;;21.71;48.20;99335.25;5050700;28;22118;-63
2021/06/01 06:55:37;;;;;;;;;;;;;;;22.03;45.52;99329.41;5039961;28;19921;-63
2021/06/01 06:58:03;;;;;;;;;;;;;;;21.54;44.15;99340.84;5042674;28;19991;-63
2021/06/01 07:00:29;;;;;;;;;;;;;;;21.82;44.41;99337.06;5049955;28;19924;-63
2021/06/01 07:02:55;;;;;;;;;;;;;;;21.74;45.39;99346.44;5054553;28;19916;-63
2021/06/01 07:05:20;;;;;;;;;;;;;;;22.46;46.22;99336.69;5054415;28;19919;-63
2021/06/01 07:07:51;;;;;;;;;;;;;;;22.95;44.00;99340.81;5056716;28;19916;-63
2021/06/01 07:10:17;;;;;;;;;;;;;;;23.55;44.47;99337.88;5055735;28;19929;-63
2021/06/01 07:12:43;;;;;;;;;;;;;;;23.84;40.74;99342.63;5019858;28;19916;-63
2021/06/01 07:15:12;;;;;;;;;;;;;;;23.36;39.98;99342.00;5058595;28;19939;-63
2021/06/01 07:17:38;;;;;;;;;;;;;;;23.67;40.38;99336.06;5052919;28;20384;-63
2021/06/01 07:20:05;;;;;;;;;;;;;;;23.91;39.49;99335.91;5032607;28;20341;-63
2021/06/01 07:22:31;;;;;;;;;;;;;;;24.10;39.69;99341.28;5034202;28;19913;-62
2021/06/01 07:24:56;;;;;;;;;;;;;;;23.62;38.20;99331.19;5051483;28;19920;-63
2021/06/01 07:27:22;;;;;;;;;;;;;;;24.00;39.96;99337.78;5053082;28;20344;-62
2021/06/01 07:29:47;;;;;;;;;;;;;;;23.99;39.97;99341.34;5056950;28;19923;-62
2021/06/01 07:32:13;;;;;;;;;;;;;;;23.57;36.15;99335.97;5052769;28;20000;-63
2021/06/01 07:34:38;;;;;;;;;;;;;;;23.64;37.35;99326.63;5056509;28;19916;-62
2021/06/01 07:37:04;;;;;;;;;;;;;;;23.83;36.05;99331.25;5054599;28;19920;-62
2021/06/01 07:39:30;;;;;;;;;;;;;;;24.29;36.78;99326.59;5039225;28;20062;-62
2021/06/01 07:41:55;;;;;;;;;;;;;;;24.62;34.59;99326.41;5058538;28;20317;-62
2021/06/01 07:44:21;;;;;;;;;;;;;;;23.80;34.33;99332.34;5020218;28;20047;-63
2021/06/01 07:46:47;;;;;;;;;;;;;;;24.99;35.55;99327.69;5055213;28;19920;-63
2021/06/01 07:49:13;;;;;;;;;;;;;;;24.17;35.14;99334.56;5053242;28;20733;-63
2021/06/01 07:51:38;;;;;;;;;;;;;;;24.65;33.04;99327.97;5058508;28;19913;-63
2021/06/01 07:54:04;;;;;;;;;;;;;;;25.12;34.60;99330.09;5058628;28;20988;-63
2021/06/01 07:56:30;;;;;;;;;;;;;;;24.70;36.51;99319.66;5059103;28;19962;-63
2021/06/01 07:58:56;;;;;;;;;;;;;;;24.61;42.06;99322.13;5050610;28;20025;-63
2021/06/01 08:01:21;;;;;;;;;;;;;;;23.89;48.88;99325.50;5052598;28;19956;-63
2021/06/01 08:03:46;;;;;;;;;;;;;;;24.57;42.76;99319.91;5054488;28;19923;-63
2021/06/01 08:06:12;;;;;;;;;;;;;;;25.42;43.81;99321.31;5057318;28;19944;-63
2021/06/01 08:08:38;;;;;;;;;;;;;;;24.33;40.94;99320.13;5031719;28;19974;-63
2021/06/01 08:11:03;;;;;;;;;;;;;;;24.55;43.71;99322.66;5056102;28;20983;-63
2021/06/01 08:13:29;;;;;;;;;;;;;;;25.54;41.79;99309.66;5042193;28;19921;-63
2021/06/01 08:15:54;;;;;;;;;;;;;;;26.11;38.71;99317.75;5060034;28;19916;-63
2021/06/01 08:18:22;;;;;;;;;;;;;;;24.38;38.78;99320.56;5052137;28;19923;-63
2021/06/01 08:21:35;;;;;;;;;;;;;;;24.95;35.71;99311.34;5050162;28;19932;-63
2021/06/01 08:23:40;;;;;;;;;;;;;;;25.12;38.08;99319.56;5043131;28;20011;-63
2021/06/01 08:26:05;;;;;;;;;;;;;;;24.08;37.98;99314.28;5056401;28;20374;-64
2021/06/01 08:28:31;;;;;;;;;;;;;;;24.96;41.49;99306.88;5054736;28;19920;-63
2021/06/01 08:30:56;;;;;;;;;;;;;;;25.88;35.15;99312.78;5034540;28;19923;-63
2021/06/01 08:33:22;;;;;;;;;;;;;;;25.91;35.67;99310.81;5047670;28;19917;-63
2021/06/01 08:35:47;;;;;;;;;;;;;;;25.58;37.26;99310.25;5057660;28;19916;-63
2021/06/01 08:38:15;;;;;;;;;;;;;;;25.95;36.10;99301.66;5050380;28;19920;-63
2021/06/01 08:40:40;;;;;;;;;;;;;;;24.74;37.18;99305.28;5034489;28;20543;-63
2021/06/01 08:43:17;;;;;;;;;;;;;;;25.33;38.43;99306.31;5058926;28;20011;-64
2021/06/01 08:45:45;;;;;;;;;;;;;;;27.13;33.05;99302.00;5055186;28;19921;-64
2021/06/01 08:48:11;;;;;;;;;;;;;;;27.30;36.21;99294.28;5033297;28;20024;-63
2021/06/01 08:50:36;;;;;;;;;;;;;;;26.53;40.62;99298.09;5011451;28;20713;-63
2021/06/01 08:53:01;;;;;;;;;;;;;;;25.08;39.33;99291.81;5031819;28;19920;-63
2021/06/01 08:55:27;;;;;;;;;;;;;;;25.11;37.32;99283.63;5029210;28;20015;-63
2021/06/01 08:57:52;;;;;;;;;;;;;;;25.22;40.87;99286.19;5051455;28;20003;-63
2021/06/01 09:00:18;;;;;;;;;;;;;;;25.49;35.71;99282.06;5049809;28;19917;-63
2021/06/01 09:02:43;;;;;;;;;;;;;;;25.28;36.71;99282.19;5057759;28;19960;-63
2021/06/01 09:05:11;;;;;;;;;;;;;;;27.38;35.46;99280.34;5033927;28;19927;-63
2021/06/01 09:10:36;;;;;;;;;;;;;;;26.67;34.20;99272.06;5027542;28;19935;-63
2021/06/01 09:21:06;;;;;;;;;;;;;;;27.02;35.70;99286.34;5058012;28;20003;-63
2021/06/01 09:23:46;;;;;;;;;;;;;;;28.09;38.19;99280.31;5059189;28;19916;-63
2021/06/01 09:26:12;;;;;;;;;;;;;;;27.66;29.87;99284.56;5020980;28;19917;-63
2021/06/01 09:28:37;;;;;;;;;;;;;;;27.17;26.68;99285.88;5040789;28;19916;-63
2021/06/01 09:31:02;;;;;;;;;;;;;;;28.34;27.94;99280.47;5058488;28;19912;-63
2021/06/01 09:33:28;;;;;;;;;;;;;;;26.68;30.13;99278.16;5061605;28;19925;-63
2021/06/01 09:35:54;;;;;;;;;;;;;;;25.08;32.76;99270.72;5059497;28;20480;-63
2021/06/01 09:38:30;;;;;;;;;;;;;;;25.46;29.79;99270.00;5063123;28;20042;-63
2021/06/01 09:41:12;;;;;;;;;;;;;;;25.53;33.01;99259.72;5041513;28;19917;-64
2021/06/01 09:43:49;;;;;;;;;;;;;;;27.50;33.10;99258.78;5057869;28;19927;-64
2021/06/01 09:46:23;;;;;;;;;;;;;;;26.32;32.41;99256.88;5054775;28;19920;-64
2021/06/01 09:48:49;;;;;;;;;;;;;;;26.74;33.30;99255.63;5058577;28;21079;-64
2021/06/01 09:51:24;;;;;;;;;;;;;;;25.41;35.15;99259.03;5056913;28;20007;-64
2021/06/01 09:53:53;;;;;;;;;;;;;;;26.45;34.26;99243.34;5059048;28;19919;-64
2021/06/01 09:56:18;;;;;;;;;;;;;;;24.87;35.84;99253.19;5036266;28;20014;-63
2021/06/01 09:58:43;;;;;;;;;;;;;;;27.22;31.95;99238.69;5039993;28;20028;-64
2021/06/01 10:01:09;;;;;;;;;;;;;;;27.24;32.07;99232.25;5052971;28;19924;-63
2021/06/01 10:03:38;;;;;;;;;;;;;;;25.69;29.31;99235.44;5058808;28;20041;-64
2021/06/01 10:06:05;;;;;;;;;;;;;;;26.20;30.92;99237.72;5019601;28;19916;-63
2021/06/01 10:08:31;;;;;;;;;;;;;;;25.46;30.06;99233.91;5052981;28;20380;-63
2021/06/01 10:11:04;;;;;;;;;;;;;;;28.67;36.47;99230.31;5056739;28;20370;-63
2021/06/01 10:13:30;;;;;;;;;;;;;;;25.77;31.70;99228.50;5058875;28;19916;-63
2021/06/01 10:15:56;;;;;;;;;;;;;;;26.15;29.23;99234.69;5056908;28;19923;-64
2021/06/01 10:18:22;;;;;;;;;;;;;;;28.58;30.90;99221.53;5055715;28;19916;-64
2021/06/01 10:20:48;;;;;;;;;;;;;;;28.19;37.98;99221.97;5061328;28;19928;-64
2021/06/01 10:23:17;;;;;;;;;;;;;;;25.82;28.33;99228.88;5059270;28;19966;-63
2021/06/01 10:25:47;;;;;;;;;;;;;;;27.52;27.02;99225.06;5047980;28;19916;-64
2021/06/01 10:28:18;;;;;;;;;;;;;;;27.52;32.37;99217.13;5033559;28;19921;-64
2021/06/01 10:30:43;;;;;;;;;;;;;;;26.40;29.91;99213.91;5044357;28;19928;-63
2021/06/01 10:33:10;;;;;;;;;;;;;;;25.69;30.77;99219.59;5053347;28;19920;-63
2021/06/01 10:35:37;;;;;;;;;;;;;;;26.41;31.82;99213.75;5051925;28;20212;-63
2021/06/01 10:52:08;;;;;;;;;;;;;;;27.27;27.15;99204.69;5061204;28;19913;-63
2021/06/01 10:54:40;;;;;;;;;;;;;;;27.46;30.28;99193.97;4953142;28;19925;-63
2021/06/01 10:57:06;;;;;;;;;;;;;;;25.73;30.00;99197.22;5037959;28;19913;-63
2021/06/01 11:02:38;;;;;;;;;;;;;;;26.96;28.99;99194.44;5017779;28;19962;-63
2021/06/01 11:05:11;;;;;;;;;;;;;;;25.87;31.28;99199.47;5050172;28;19924;-62
2021/06/01 11:07:56;;;;;;;;;;;;;;;26.48;28.52;99195.53;5034786;28;19916;-64
2021/06/01 11:10:37;;;;;;;;;;;;;;;27.06;31.28;99187.28;5051164;28;19924;-63
2021/06/01 11:13:03;;;;;;;;;;;;;;;27.51;29.11;99189.03;5051755;28;19921;-63
2021/06/01 11:15:30;;;;;;;;;;;;;;;27.17;27.70;99188.03;5056643;28;20023;-63
2021/06/01 11:18:14;;;;;;;;;;;;;;;26.66;29.52;99180.59;5055972;28;19917;-63
2021/06/01 11:21:08;;;;;;;;;;;;;;;27.54;27.16;99180.78;5052405;28;20400;-63
2021/06/01 11:23:56;;;;;;;;;;;;;;;26.84;30.97;99169.19;5047174;28;19916;-63
2021/06/01 11:32:50;;;;;;;;;;;;;;;28.77;28.80;99162.94;5053471;28;19971;-63
2021/06/01 11:34:46;;;;;;;;;;;;;;;27.92;27.26;99160.25;4996631;28;19926;-63
2021/06/01 11:37:17;;;;;;;;;;;;;;;27.70;30.83;99161.56;5013789;28;20270;-63
2021/06/01 11:42:52;;;;;;;;;;;;;;;26.94;27.87;99164.69;5026023;28;20730;-63
2021/06/01 11:45:22;;;;;;;;;;;;;;;27.88;28.18;99161.53;5037180;28;19962;-62
2021/06/01 11:48:09;;;;;;;;;;;;;;;28.01;28.78;99145.25;5047211;28;20003;-63
2021/06/01 11:53:18;;;;;;;;;;;;;;;28.05;25.97;99151.03;5036406;28;19927;-63
2021/06/01 11:55:44;;;;;;;;;;;;;;;28.50;27.63;99155.25;5055211;28;20011;-63
2021/06/01 12:04:00;;;;;;;;;;;;;;;27.83;26.03;99134.69;5049350;28;19975;-63
2021/06/01 12:12:10;;;;;;;;;;;;;;;26.74;24.92;99134.09;5048983;28;20491;-62
2021/06/01 12:17:51;;;;;;;;;;;;;;;28.92;31.29;99122.53;5039293;28;20333;-63
2021/06/01 12:20:17;;;;;;;;;;;;;;;28.13;26.79;99125.44;5054420;28;19966;-63
2021/06/01 12:22:43;;;;;;;;;;;;;;;28.30;26.79;99122.84;5048462;28;19913;-63
2021/06/01 12:25:10;;;;;;;;;;;;;;;29.56;26.10;99120.91;5033745;28;20544;-63
2021/06/01 12:30:58;;;;;;;;;;;;;;;29.05;25.37;99127.34;5027562;28;19920;-63
2021/06/01 12:33:24;;;;;;;;;;;;;;;29.01;25.96;99116.25;5051437;28;20385;-62
2021/06/01 12:41:49;;;;;;;;;;;;;;;27.70;26.41;99115.75;5047871;28;19924;-63
2021/06/01 12:44:16;;;;;;;;;;;;;;;26.33;25.47;99109.84;5032214;28;20144;-63
2021/06/01 12:47:44;;;;;;;;;;;;;;;27.60;30.56;99099.13;5048658;28;19920;-63
2021/06/01 13:22:31;;;;;;;;;;;;;;;28.33;30.92;99062.44;5036099;28;19917;-63
2021/06/01 13:38:33;;;;;;;;;;;;;;;28.84;27.09;99061.56;5053943;28;20439;-63
2021/06/01 13:46:39;;;;;;;;;;;;;;;29.52;24.99;99044.47;5044534;28;19923;-63
2021/06/01 13:49:14;;;;;;;;;;;;;;;29.70;26.84;99052.25;5032654;28;19921;-63
2021/06/01 13:56:55;;;;;;;;;;;;;;;28.77;31.89;99045.50;5047743;28;20605;-63
2021/06/01 14:10:29;;;;;;;;;;;;;;;28.43;24.85;99038.47;5049329;28;20642;-62
2021/06/01 15:52:57;;;;;;;;;;;;;;;29.10;24.20;98966.81;5052968;28;19939;-63
2021/06/01 16:12:12;;;;;;;;;;;;;;;30.24;22.31;98962.00;5048043;28;20551;-63
2021/06/01 16:15:03;;;;;;;;;;;;;;;28.84;23.81;98956.34;5032072;28;20275;-63
2021/06/01 16:23:25;;;;;;;;;;;;;;;29.23;25.87;98954.84;5047876;28;19930;-63
2021/06/01 17:05:01;;;;;;;;;;;;;;;28.00;26.44;98960.09;5048135;28;19931;-62
2021/06/01 17:12:54;;;;;;;;;;;;;;;28.10;26.89;98964.25;5049365;28;19991;-63
2021/06/01 17:15:20;;;;;;;;;;;;;;;28.08;26.78;98968.06;5048497;28;20328;-62
2021/06/01 17:17:47;;;;;;;;;;;;;;;28.61;25.88;98964.16;5048185;28;19916;-62
2021/06/01 17:20:34;;;;;;;;;;;;;;;30.56;25.48;98963.66;5028599;28;19920;-64
2021/06/01 17:36:28;;;;;;;;;;;;;;;28.47;25.45;98947.09;5044091;28;19923;-63
2021/06/01 17:38:53;;;;;;;;;;;;;;;29.90;23.58;98957.91;5017361;28;19921;-63
2021/06/01 17:41:19;;;;;;;;;;;;;;;28.60;24.15;98959.84;5032744;28;19929;-62
2021/06/01 17:43:44;;;;;;;;;;;;;;;30.25;24.37;98954.88;5012055;28;19924;-63
2021/06/01 17:46:11;;;;;;;;;;;;;;;30.12;25.59;98955.44;5014550;28;19991;-62
2021/06/01 17:48:54;;;;;;;;;;;;;;;28.08;24.59;98962.75;5055954;28;19932;-63
2021/06/01 17:51:20;;;;;;;;;;;;;;;29.12;24.40;98953.34;5053222;28;20620;-63
2021/06/01 17:53:48;;;;;;;;;;;;;;;29.88;23.88;98959.91;5036940;28;20003;-63
2021/06/01 17:56:16;;;;;;;;;;;;;;;31.45;23.18;98957.63;5031732;28;19927;-63
2021/06/01 17:58:42;;;;;;;;;;;;;;;30.52;23.61;98956.19;5059279;28;19927;-63
2021/06/01 18:01:08;;;;;;;;;;;;;;;30.77;23.63;98960.31;5053086;28;19920;-63
2021/06/01 18:03:39;;;;;;;;;;;;;;;30.88;25.20;98958.22;5013822;28;19927;-62
2021/06/01 18:06:05;;;;;;;;;;;;;;;30.94;24.89;98957.50;5034304;28;19921;-63
2021/06/01 18:09:27;;;;;;;;;;;;;;;29.78;25.79;98952.16;5031837;28;19934;-62
2021/06/01 18:52:55;;;;;;;;;;;;;;;27.13;28.74;98950.41;5039150;28;19935;-63
2021/06/01 19:01:34;;;;;;;;;;;;;;;26.54;28.89;98954.56;5048556;28;19928;-63